KJNX

Details ICAO KJNX
Name JOHNSTON CO
Region United States
Timezone America/New_York (UTC-4.0)
Plans Departing 38
Arriving 25
Stats Elevation 165 ft / 50 m (AMSL)
Location 35.540832° -78.390277°
Runways 1
Magnetic Variation 9.385° W
Sunrise 2018-05-21 10:06:04 UTC / 2018-05-21 06:06:04 Local
Sunset 2018-05-22 00:17:08 UTC / 2018-05-21 20:17:08 Local
Advertisement - Login to hide

Runways

ID Width Length Bearing (true) Bearing (mag) Surface Threshold Offset Overrun Length
03 100 ft / 30 m 5,507 ft / 1,679 m 29.87° 39.25° Asphalt 0 ft / 0 m 0 ft / 0 m
21 100 ft / 30 m 5,507 ft / 1,679 m 209.88° 219.26° Asphalt 0 ft / 0 m 0 ft / 0 m

Approach Navaids

Runway Type Ident Frequency Range Bearing (true) Bearing (mag) Slope Elevation
03 Localiser JN 111.15 MHz 18 nm / 33 km 25.64° 35.03° - 165 ft / 50 m (AMSL)
03 Glidescope JN 111.15 MHz 10 nm / 19 km 29.88° 39.26° 3.00° 140 ft / 43 m (AMSL)

Map

Weather


0- 5 10 15 20 25 30 35+ Temperature / ° C

Clouds and Precipitation
Forecast for 2018-05-22 00:00 UTC. Updated 6 hours ago

Ground ~20,000 ft ~40,000 ft Winds

METAR

KJNX 220430Z AUTO 00000KT 5SM VCTSRA SCT065 BKN090 OVC110 21/20 A3014 RMK AO2 P0006

TAF

Not found

Frequencies

Unicom 122.80 MHz CTAF/UNICOM
Approach 125.30 MHz RALEIGH APP/DEP
Warning: Do not use this data for real-world aviation or navigation. No guarantee of current accuracy is given.